sensor_id;sensor_type;location;lat;lon;timestamp;temperature;humidity
774;DHT22;370;48.810;9.150;2023-04-01T00:01:23;8.70;22.20
774;DHT22;370;48.810;9.150;2023-04-01T00:03:49;8.70;22.20
774;DHT22;370;48.810;9.150;2023-04-01T00:06:17;8.70;22.20
774;DHT22;370;48.810;9.150;2023-04-01T00:08:44;8.70;22.10
774;DHT22;370;48.810;9.150;2023-04-01T00:11:11;8.70;22.20
774;DHT22;370;48.810;9.150;2023-04-01T00:13:38;8.80;22.20
774;DHT22;370;48.810;9.150;2023-04-01T00:16:06;8.80;22.00
774;DHT22;370;48.810;9.150;2023-04-01T00:18:34;8.80;22.20
774;DHT22;370;48.810;9.150;2023-04-01T00:21:01;8.90;21.10
774;DHT22;370;48.810;9.150;2023-04-01T00:23:28;9.00;20.30
774;DHT22;370;48.810;9.150;2023-04-01T00:25:54;9.00;20.20
774;DHT22;370;48.810;9.150;2023-04-01T00:28:21;9.00;20.30
774;DHT22;370;48.810;9.150;2023-04-01T00:30:48;9.00;19.90
774;DHT22;370;48.810;9.150;2023-04-01T00:33:15;9.00;20.20
774;DHT22;370;48.810;9.150;2023-04-01T00:35:43;9.00;20.20
774;DHT22;370;48.810;9.150;2023-04-01T00:38:11;9.00;20.30
774;DHT22;370;48.810;9.150;2023-04-01T00:40:40;8.90;20.40
774;DHT22;370;48.810;9.150;2023-04-01T00:43:11;8.90;20.70
774;DHT22;370;48.810;9.150;2023-04-01T00:45:40;8.90;20.80
774;DHT22;370;48.810;9.150;2023-04-01T00:48:10;8.90;21.10
774;DHT22;370;48.810;9.150;2023-04-01T00:50:39;9.00;21.10
774;DHT22;370;48.810;9.150;2023-04-01T00:53:08;9.00;22.10
774;DHT22;370;48.810;9.150;2023-04-01T00:55:39;9.10;22.40
774;DHT22;370;48.810;9.150;2023-04-01T00:58:11;9.00;22.40
774;DHT22;370;48.810;9.150;2023-04-01T01:00:40;9.00;22.30
774;DHT22;370;48.810;9.150;2023-04-01T01:03:10;9.00;22.30
774;DHT22;370;48.810;9.150;2023-04-01T01:09:10;9.10;22.40
774;DHT22;370;48.810;9.150;2023-04-01T01:11:42;9.10;22.70
774;DHT22;370;48.810;9.150;2023-04-01T01:14:33;9.10;22.40
774;DHT22;370;48.810;9.150;2023-04-01T01:17:12;9.10;22.90
774;DHT22;370;48.810;9.150;2023-04-01T01:26:44;9.20;24.30
774;DHT22;370;48.810;9.150;2023-04-01T01:32:19;9.20;24.20
774;DHT22;370;48.810;9.150;2023-04-01T01:34:55;9.20;24.40
774;DHT22;370;48.810;9.150;2023-04-01T01:37:27;9.20;25.00
774;DHT22;370;48.810;9.150;2023-04-01T01:39:58;9.20;25.30
774;DHT22;370;48.810;9.150;2023-04-01T01:42:27;9.20;25.80
774;DHT22;370;48.810;9.150;2023-04-01T01:44:56;9.20;27.50
774;DHT22;370;48.810;9.150;2023-04-01T01:47:27;9.10;29.10
774;DHT22;370;48.810;9.150;2023-04-01T01:49:55;9.10;32.00
774;DHT22;370;48.810;9.150;2023-04-01T01:52:22;9.00;36.80
774;DHT22;370;48.810;9.150;2023-04-01T01:54:51;9.00;39.00
774;DHT22;370;48.810;9.150;2023-04-01T01:57:22;8.90;39.40
774;DHT22;370;48.810;9.150;2023-04-01T01:59:52;8.80;42.90
774;DHT22;370;48.810;9.150;2023-04-01T02:02:22;8.70;44.50
774;DHT22;370;48.810;9.150;2023-04-01T02:04:50;8.70;46.20
774;DHT22;370;48.810;9.150;2023-04-01T02:07:21;8.70;48.30
774;DHT22;370;48.810;9.150;2023-04-01T02:09:51;8.60;46.50
774;DHT22;370;48.810;9.150;2023-04-01T02:12:19;8.50;46.00
774;DHT22;370;48.810;9.150;2023-04-01T02:14:51;8.40;46.50
774;DHT22;370;48.810;9.150;2023-04-01T02:17:20;8.40;46.80
774;DHT22;370;48.810;9.150;2023-04-01T02:19:51;8.40;48.80
774;DHT22;370;48.810;9.150;2023-04-01T02:22:21;8.40;49.80
774;DHT22;370;48.810;9.150;2023-04-01T02:24:51;8.40;47.20
774;DHT22;370;48.810;9.150;2023-04-01T02:27:18;8.40;46.80
774;DHT22;370;48.810;9.150;2023-04-01T02:29:46;8.30;45.20
774;DHT22;370;48.810;9.150;2023-04-01T02:32:13;8.30;46.00
774;DHT22;370;48.810;9.150;2023-04-01T02:34:41;8.30;45.20
774;DHT22;370;48.810;9.150;2023-04-01T02:37:09;8.30;45.00
774;DHT22;370;48.810;9.150;2023-04-01T02:39:36;8.30;44.60
774;DHT22;370;48.810;9.150;2023-04-01T02:42:05;8.30;45.20
774;DHT22;370;48.810;9.150;2023-04-01T02:44:32;8.20;44.20
774;DHT22;370;48.810;9.150;2023-04-01T02:46:58;8.20;43.10
774;DHT22;370;48.810;9.150;2023-04-01T02:49:25;8.10;42.80
774;DHT22;370;48.810;9.150;2023-04-01T02:51:52;8.10;41.50
774;DHT22;370;48.810;9.150;2023-04-01T02:54:19;8.10;42.30
774;DHT22;370;48.810;9.150;2023-04-01T02:56:46;8.00;42.40
774;DHT22;370;48.810;9.150;2023-04-01T02:59:14;8.00;43.00
774;DHT22;370;48.810;9.150;2023-04-01T03:01:40;8.00;42.90
774;DHT22;370;48.810;9.150;2023-04-01T03:04:07;8.00;40.30
774;DHT22;370;48.810;9.150;2023-04-01T03:06:34;8.00;40.30
774;DHT22;370;48.810;9.150;2023-04-01T03:09:00;8.00;41.60
774;DHT22;370;48.810;9.150;2023-04-01T03:11:28;8.00;40.00
774;DHT22;370;48.810;9.150;2023-04-01T03:13:55;8.10;39.40
774;DHT22;370;48.810;9.150;2023-04-01T03:16:23;8.10;37.10
774;DHT22;370;48.810;9.150;2023-04-01T03:18:50;8.10;37.40
774;DHT22;370;48.810;9.150;2023-04-01T03:21:20;8.10;36.90
774;DHT22;370;48.810;9.150;2023-04-01T03:23:47;8.10;38.40
774;DHT22;370;48.810;9.150;2023-04-01T03:26:14;8.10;36.00
774;DHT22;370;48.810;9.150;2023-04-01T03:28:41;8.00;34.70
774;DHT22;370;48.810;9.150;2023-04-01T03:31:08;8.00;34.30
774;DHT22;370;48.810;9.150;2023-04-01T03:33:36;7.90;35.20
774;DHT22;370;48.810;9.150;2023-04-01T03:36:03;7.90;35.70
774;DHT22;370;48.810;9.150;2023-04-01T03:38:31;7.90;34.40
774;DHT22;370;48.810;9.150;2023-04-01T03:40:58;7.90;34.20
774;DHT22;370;48.810;9.150;2023-04-01T03:43:25;8.00;32.70
774;DHT22;370;48.810;9.150;2023-04-01T03:45:52;8.00;32.90
774;DHT22;370;48.810;9.150;2023-04-01T03:48:19;8.00;33.60
774;DHT22;370;48.810;9.150;2023-04-01T03:50:48;8.00;30.70
774;DHT22;370;48.810;9.150;2023-04-01T03:53:14;7.90;32.50
774;DHT22;370;48.810;9.150;2023-04-01T03:55:41;7.90;32.20
774;DHT22;370;48.810;9.150;2023-04-01T03:58:08;7.90;31.30
774;DHT22;370;48.810;9.150;2023-04-01T04:00:35;7.90;29.80
774;DHT22;370;48.810;9.150;2023-04-01T04:03:02;7.80;29.70
774;DHT22;370;48.810;9.150;2023-04-01T04:05:29;7.80;28.40
774;DHT22;370;48.810;9.150;2023-04-01T04:07:57;7.70;28.30
774;DHT22;370;48.810;9.150;2023-04-01T04:10:24;7.70;29.10
774;DHT22;370;48.810;9.150;2023-04-01T04:12:52;7.70;28.10
774;DHT22;370;48.810;9.150;2023-04-01T04:15:19;7.80;27.70
774;DHT22;370;48.810;9.150;2023-04-01T04:17:45;7.80;26.90
774;DHT22;370;48.810;9.150;2023-04-01T04:20:12;7.90;26.30
774;DHT22;370;48.810;9.150;2023-04-01T04:22:39;8.00;24.50
774;DHT22;370;48.810;9.150;2023-04-01T04:25:08;8.00;23.10
774;DHT22;370;48.810;9.150;2023-04-01T04:27:35;8.00;23.30
774;DHT22;370;48.810;9.150;2023-04-01T04:30:03;8.00;23.00
774;DHT22;370;48.810;9.150;2023-04-01T04:32:30;8.00;22.30
774;DHT22;370;48.810;9.150;2023-04-01T04:34:57;7.90;22.90
774;DHT22;370;48.810;9.150;2023-04-01T04:37:23;8.00;21.70
774;DHT22;370;48.810;9.150;2023-04-01T04:39:51;8.00;22.90
774;DHT22;370;48.810;9.150;2023-04-01T04:42:19;8.00;22.10
774;DHT22;370;48.810;9.150;2023-04-01T04:44:46;8.00;23.10
774;DHT22;370;48.810;9.150;2023-04-01T04:47:13;8.00;21.70
774;DHT22;370;48.810;9.150;2023-04-01T04:49:39;8.10;21.80
774;DHT22;370;48.810;9.150;2023-04-01T04:52:06;8.10;21.80
774;DHT22;370;48.810;9.150;2023-04-01T04:54:33;8.10;21.80
774;DHT22;370;48.810;9.150;2023-04-01T04:56:59;8.00;22.30
774;DHT22;370;48.810;9.150;2023-04-01T04:59:28;8.10;21.80
774;DHT22;370;48.810;9.150;2023-04-01T05:01:54;8.10;22.20
774;DHT22;370;48.810;9.150;2023-04-01T05:04:21;8.10;23.00
774;DHT22;370;48.810;9.150;2023-04-01T05:06:48;8.10;22.30
774;DHT22;370;48.810;9.150;2023-04-01T05:09:14;8.00;22.70
774;DHT22;370;48.810;9.150;2023-04-01T05:11:41;8.10;22.80
774;DHT22;370;48.810;9.150;2023-04-01T05:14:12;8.00;23.00
774;DHT22;370;48.810;9.150;2023-04-01T05:16:40;8.10;23.10
774;DHT22;370;48.810;9.150;2023-04-01T05:19:07;8.00;23.80
774;DHT22;370;48.810;9.150;2023-04-01T05:21:33;8.00;24.10
774;DHT22;370;48.810;9.150;2023-04-01T05:24:00;8.00;24.30
774;DHT22;370;48.810;9.150;2023-04-01T05:26:27;8.00;24.00
774;DHT22;370;48.810;9.150;2023-04-01T05:28:53;8.10;23.70
774;DHT22;370;48.810;9.150;2023-04-01T05:31:20;8.10;23.60
774;DHT22;370;48.810;9.150;2023-04-01T05:33:50;8.20;23.70
774;DHT22;370;48.810;9.150;2023-04-01T05:36:17;8.30;21.90
774;DHT22;370;48.810;9.150;2023-04-01T05:38:44;8.40;22.20
774;DHT22;370;48.810;9.150;2023-04-01T05:41:13;8.50;21.20
774;DHT22;370;48.810;9.150;2023-04-01T05:43:43;8.60;20.30
774;DHT22;370;48.810;9.150;2023-04-01T05:46:16;8.60;19.80
774;DHT22;370;48.810;9.150;2023-04-01T05:48:42;8.60;19.20
774;DHT22;370;48.810;9.150;2023-04-01T05:51:13;8.80;18.30
774;DHT22;370;48.810;9.150;2023-04-01T05:53:41;8.80;17.20
774;DHT22;370;48.810;9.150;2023-04-01T05:56:08;8.90;16.50
774;DHT22;370;48.810;9.150;2023-04-01T05:58:35;9.00;14.10
774;DHT22;370;48.810;9.150;2023-04-01T06:01:02;9.10;13.30
774;DHT22;370;48.810;9.150;2023-04-01T06:03:29;9.30;12.70
774;DHT22;370;48.810;9.150;2023-04-01T06:05:56;9.40;10.60
774;DHT22;370;48.810;9.150;2023-04-01T06:08:25;9.50;10.50
774;DHT22;370;48.810;9.150;2023-04-01T06:11:16;9.60;10.00
774;DHT22;370;48.810;9.150;2023-04-01T06:13:57;9.80;9.30
774;DHT22;370;48.810;9.150;2023-04-01T06:16:38;9.90;8.50
774;DHT22;370;48.810;9.150;2023-04-01T06:19:21;10.00;5.90
774;DHT22;370;48.810;9.150;2023-04-01T06:22:27;10.10;5.60
774;DHT22;370;48.810;9.150;2023-04-01T06:25:12;10.30;5.20
774;DHT22;370;48.810;9.150;2023-04-01T06:27:51;10.40;5.30
774;DHT22;370;48.810;9.150;2023-04-01T06:30:35;10.40;4.20
774;DHT22;370;48.810;9.150;2023-04-01T06:33:34;10.50;3.50
774;DHT22;370;48.810;9.150;2023-04-01T06:36:15;10.80;3.20
774;DHT22;370;48.810;9.150;2023-04-01T06:38:57;10.90;2.60
774;DHT22;370;48.810;9.150;2023-04-01T06:41:45;10.90;2.00
774;DHT22;370;48.810;9.150;2023-04-01T06:44:23;11.00;1.80
774;DHT22;370;48.810;9.150;2023-04-01T06:46:57;10.90;1.00
774;DHT22;370;48.810;9.150;2023-04-01T06:49:36;10.80;2.50
774;DHT22;370;48.810;9.150;2023-04-01T06:52:13;10.70;2.20
774;DHT22;370;48.810;9.150;2023-04-01T06:54:48;10.80;2.00
774;DHT22;370;48.810;9.150;2023-04-01T06:57:21;10.90;1.50
774;DHT22;370;48.810;9.150;2023-04-01T06:59:51;11.00;1.70
774;DHT22;370;48.810;9.150;2023-04-01T07:02:24;11.00;1.50
774;DHT22;370;48.810;9.150;2023-04-01T07:04:53;11.00;1.00
774;DHT22;370;48.810;9.150;2023-04-01T07:07:27;11.10;3.00
774;DHT22;370;48.810;9.150;2023-04-01T07:09:56;11.20;1.00
774;DHT22;370;48.810;9.150;2023-04-01T07:12:36;11.20;1.00
774;DHT22;370;48.810;9.150;2023-04-01T07:15:15;11.10;1.10
774;DHT22;370;48.810;9.150;2023-04-01T07:17:44;11.30;1.00
774;DHT22;370;48.810;9.150;2023-04-01T07:20:17;11.30;1.00
774;DHT22;370;48.810;9.150;2023-04-01T07:22:48;11.30;1.40
774;DHT22;370;48.810;9.150;2023-04-01T07:25:18;11.30;1.00
774;DHT22;370;48.810;9.150;2023-04-01T07:27:49;11.30;1.00
774;DHT22;370;48.810;9.150;2023-04-01T07:30:18;11.20;1.00
774;DHT22;370;48.810;9.150;2023-04-01T07:32:47;11.30;1.00
774;DHT22;370;48.810;9.150;2023-04-01T07:35:23;11.10;2.00
774;DHT22;370;48.810;9.150;2023-04-01T07:40:48;11.00;2.90
774;DHT22;370;48.810;9.150;2023-04-01T07:43:41;10.90;2.40
774;DHT22;370;48.810;9.150;2023-04-01T07:46:17;10.90;2.80
774;DHT22;370;48.810;9.150;2023-04-01T07:48:54;11.00;3.10
774;DHT22;370;48.810;9.150;2023-04-01T07:51:24;11.20;3.10
774;DHT22;370;48.810;9.150;2023-04-01T07:54:00;11.20;3.30
774;DHT22;370;48.810;9.150;2023-04-01T07:56:34;11.40;1.80
774;DHT22;370;48.810;9.150;2023-04-01T08:05:55;11.70;1.00
774;DHT22;370;48.810;9.150;2023-04-01T08:08:31;11.90;1.00
774;DHT22;370;48.810;9.150;2023-04-01T08:11:07;12.00;1.00
774;DHT22;370;48.810;9.150;2023-04-01T08:13:40;12.10;1.00
774;DHT22;370;48.810;9.150;2023-04-01T08:19:42;11.90;1.00
774;DHT22;370;48.810;9.150;2023-04-01T08:22:22;11.90;1.00
774;DHT22;370;48.810;9.150;2023-04-01T08:24:51;12.00;1.00
774;DHT22;370;48.810;9.150;2023-04-01T08:27:24;12.20;1.00
774;DHT22;370;48.810;9.150;2023-04-01T08:29:58;12.20;1.00
774;DHT22;370;48.810;9.150;2023-04-01T08:32:29;12.20;1.00
774;DHT22;370;48.810;9.150;2023-04-01T08:35:07;12.40;1.00
774;DHT22;370;48.810;9.150;2023-04-01T08:37:40;12.50;1.00
774;DHT22;370;48.810;9.150;2023-04-01T08:43:16;11.80;3.40
774;DHT22;370;48.810;9.150;2023-04-01T08:45:58;11.40;8.90
774;DHT22;370;48.810;9.150;2023-04-01T08:48:36;11.00;16.10
774;DHT22;370;48.810;9.150;2023-04-01T08:51:45;10.70;20.80
774;DHT22;370;48.810;9.150;2023-04-01T08:54:27;10.40;25.30
774;DHT22;370;48.810;9.150;2023-04-01T08:57:06;10.30;30.10
774;DHT22;370;48.810;9.150;2023-04-01T09:06:27;10.00;37.40
774;DHT22;370;48.810;9.150;2023-04-01T09:09:11;10.20;37.00
774;DHT22;370;48.810;9.150;2023-04-01T09:11:54;10.10;28.90
774;DHT22;370;48.810;9.150;2023-04-01T09:14:53;10.20;29.80
774;DHT22;370;48.810;9.150;2023-04-01T09:17:35;10.10;26.30
774;DHT22;370;48.810;9.150;2023-04-01T09:20:24;10.30;28.40
774;DHT22;370;48.810;9.150;2023-04-01T09:23:06;10.40;23.80
774;DHT22;370;48.810;9.150;2023-04-01T09:25:46;10.60;19.80
774;DHT22;370;48.810;9.150;2023-04-01T09:28:20;10.90;22.90
774;DHT22;370;48.810;9.150;2023-04-01T09:31:13;11.00;17.10
774;DHT22;370;48.810;9.150;2023-04-01T09:37:01;11.90;7.70
774;DHT22;370;48.810;9.150;2023-04-01T09:39:37;12.20;8.70
774;DHT22;370;48.810;9.150;2023-04-01T09:42:33;12.50;3.90
774;DHT22;370;48.810;9.150;2023-04-01T09:45:09;12.30;3.70
774;DHT22;370;48.810;9.150;2023-04-01T09:47:51;12.00;3.60
774;DHT22;370;48.810;9.150;2023-04-01T09:50:31;12.00;4.90
774;DHT22;370;48.810;9.150;2023-04-01T09:53:11;11.70;6.20
774;DHT22;370;48.810;9.150;2023-04-01T10:02:27;11.50;5.60
774;DHT22;370;48.810;9.150;2023-04-01T10:08:40;11.80;2.50
774;DHT22;370;48.810;9.150;2023-04-01T10:14:30;12.10;1.00
774;DHT22;370;48.810;9.150;2023-04-01T10:17:38;12.40;1.00
774;DHT22;370;48.810;9.150;2023-04-01T10:23:22;13.40;1.00
774;DHT22;370;48.810;9.150;2023-04-01T10:29:34;15.40;1.00
774;DHT22;370;48.810;9.150;2023-04-01T10:35:23;15.80;1.00
774;DHT22;370;48.810;9.150;2023-04-01T10:38:25;15.00;1.00
774;DHT22;370;48.810;9.150;2023-04-01T10:47:26;13.30;1.00
774;DHT22;370;48.810;9.150;2023-04-01T10:50:21;13.00;1.00
774;DHT22;370;48.810;9.150;2023-04-01T10:53:28;13.20;1.00
774;DHT22;370;48.810;9.150;2023-04-01T11:02:42;12.70;1.00
774;DHT22;370;48.810;9.150;2023-04-01T11:05:47;12.50;1.00
774;DHT22;370;48.810;9.150;2023-04-01T11:11:47;12.80;1.00
774;DHT22;370;48.810;9.150;2023-04-01T11:14:53;13.10;1.00
774;DHT22;370;48.810;9.150;2023-04-01T11:20:57;14.10;1.00
774;DHT22;370;48.810;9.150;2023-04-01T11:23:50;14.40;1.00
774;DHT22;370;48.810;9.150;2023-04-01T11:26:31;14.70;1.00
774;DHT22;370;48.810;9.150;2023-04-01T11:31:55;14.50;1.00
774;DHT22;370;48.810;9.150;2023-04-01T11:34:37;14.60;1.00
774;DHT22;370;48.810;9.150;2023-04-01T11:37:20;14.90;1.00
774;DHT22;370;48.810;9.150;2023-04-01T11:39:59;15.20;1.00
774;DHT22;370;48.810;9.150;2023-04-01T11:42:35;15.20;1.00
774;DHT22;370;48.810;9.150;2023-04-01T11:45:19;15.70;1.00
774;DHT22;370;48.810;9.150;2023-04-01T11:47:58;16.00;1.00
774;DHT22;370;48.810;9.150;2023-04-01T11:50:37;16.10;1.00
774;DHT22;370;48.810;9.150;2023-04-01T11:53:23;16.10;1.00
774;DHT22;370;48.810;9.150;2023-04-01T11:56:09;16.10;1.00
774;DHT22;370;48.810;9.150;2023-04-01T11:59:05;15.90;1.00
774;DHT22;370;48.810;9.150;2023-04-01T12:01:47;15.90;1.00
774;DHT22;370;48.810;9.150;2023-04-01T12:04:43;15.50;1.00
774;DHT22;370;48.810;9.150;2023-04-01T12:07:21;14.90;1.00
774;DHT22;370;48.810;9.150;2023-04-01T12:09:57;14.80;1.00
774;DHT22;370;48.810;9.150;2023-04-01T12:12:35;14.50;1.00
774;DHT22;370;48.810;9.150;2023-04-01T12:15:16;14.30;1.00
774;DHT22;370;48.810;9.150;2023-04-01T12:17:50;14.20;1.00
774;DHT22;370;48.810;9.150;2023-04-01T12:20:34;14.00;1.00
774;DHT22;370;48.810;9.150;2023-04-01T12:23:16;13.80;1.00
774;DHT22;370;48.810;9.150;2023-04-01T12:26:06;13.70;1.00
774;DHT22;370;48.810;9.150;2023-04-01T12:28:41;13.40;1.00
774;DHT22;370;48.810;9.150;2023-04-01T12:31:25;13.40;1.00
774;DHT22;370;48.810;9.150;2023-04-01T12:34:29;13.50;1.00
774;DHT22;370;48.810;9.150;2023-04-01T12:37:06;13.50;1.00
774;DHT22;370;48.810;9.150;2023-04-01T12:39:48;14.00;1.00
774;DHT22;370;48.810;9.150;2023-04-01T12:42:42;14.50;1.00
774;DHT22;370;48.810;9.150;2023-04-01T12:45:28;14.90;1.00
774;DHT22;370;48.810;9.150;2023-04-01T12:48:20;15.20;1.00
774;DHT22;370;48.810;9.150;2023-04-01T12:51:11;15.00;1.00
774;DHT22;370;48.810;9.150;2023-04-01T12:54:08;14.80;1.00
774;DHT22;370;48.810;9.150;2023-04-01T12:56:44;14.80;1.00
774;DHT22;370;48.810;9.150;2023-04-01T12:59:44;14.90;1.00
774;DHT22;370;48.810;9.150;2023-04-01T13:02:24;15.00;1.00
774;DHT22;370;48.810;9.150;2023-04-01T13:05:21;14.90;1.00
774;DHT22;370;48.810;9.150;2023-04-01T13:08:03;14.80;1.00
774;DHT22;370;48.810;9.150;2023-04-01T13:10:42;14.70;1.00
774;DHT22;370;48.810;9.150;2023-04-01T13:13:34;14.40;1.00
774;DHT22;370;48.810;9.150;2023-04-01T13:16:10;14.20;1.00
774;DHT22;370;48.810;9.150;2023-04-01T13:18:45;14.00;1.00
774;DHT22;370;48.810;9.150;2023-04-01T13:21:20;14.00;1.00
774;DHT22;370;48.810;9.150;2023-04-01T13:23:57;14.00;1.00
774;DHT22;370;48.810;9.150;2023-04-01T13:26:31;14.20;1.00
774;DHT22;370;48.810;9.150;2023-04-01T13:29:08;14.80;1.00
774;DHT22;370;48.810;9.150;2023-04-01T13:32:01;15.40;1.00
774;DHT22;370;48.810;9.150;2023-04-01T13:34:39;15.80;1.00
774;DHT22;370;48.810;9.150;2023-04-01T13:37:22;15.40;1.00
774;DHT22;370;48.810;9.150;2023-04-01T13:40:05;15.10;1.00
774;DHT22;370;48.810;9.150;2023-04-01T13:42:42;15.10;1.00
774;DHT22;370;48.810;9.150;2023-04-01T13:45:15;15.40;1.00
774;DHT22;370;48.810;9.150;2023-04-01T13:50:56;15.20;1.00
774;DHT22;370;48.810;9.150;2023-04-01T13:53:51;15.00;1.00
774;DHT22;370;48.810;9.150;2023-04-01T13:56:29;14.70;1.00
774;DHT22;370;48.810;9.150;2023-04-01T14:02:05;14.80;1.00
774;DHT22;370;48.810;9.150;2023-04-01T14:05:12;14.50;1.00
774;DHT22;370;48.810;9.150;2023-04-01T14:07:56;14.40;1.00
774;DHT22;370;48.810;9.150;2023-04-01T14:10:32;14.50;1.00
774;DHT22;370;48.810;9.150;2023-04-01T14:13:07;14.40;1.00
774;DHT22;370;48.810;9.150;2023-04-01T14:18:57;14.20;1.00
774;DHT22;370;48.810;9.150;2023-04-01T14:21:35;13.90;1.00
774;DHT22;370;48.810;9.150;2023-04-01T14:24:18;13.90;1.00
774;DHT22;370;48.810;9.150;2023-04-01T14:30:12;13.70;1.00
774;DHT22;370;48.810;9.150;2023-04-01T14:32:48;13.40;1.00
774;DHT22;370;48.810;9.150;2023-04-01T14:35:35;13.10;1.00
774;DHT22;370;48.810;9.150;2023-04-01T14:38:26;12.70;1.00
774;DHT22;370;48.810;9.150;2023-04-01T14:41:02;12.60;1.00
774;DHT22;370;48.810;9.150;2023-04-01T14:43:48;12.50;1.00
774;DHT22;370;48.810;9.150;2023-04-01T14:49:19;12.50;1.00
774;DHT22;370;48.810;9.150;2023-04-01T14:51:48;12.60;1.00
774;DHT22;370;48.810;9.150;2023-04-01T14:54:30;12.80;1.00
774;DHT22;370;48.810;9.150;2023-04-01T14:57:09;12.80;1.00
774;DHT22;370;48.810;9.150;2023-04-01T14:59:40;12.90;1.00
774;DHT22;370;48.810;9.150;2023-04-01T15:02:18;13.20;1.00
774;DHT22;370;48.810;9.150;2023-04-01T15:04:55;13.40;1.00
774;DHT22;370;48.810;9.150;2023-04-01T15:08:05;13.50;1.00
774;DHT22;370;48.810;9.150;2023-04-01T15:10:46;13.40;1.00
774;DHT22;370;48.810;9.150;2023-04-01T15:13:24;13.50;1.00
774;DHT22;370;48.810;9.150;2023-04-01T15:16:05;13.50;1.00
774;DHT22;370;48.810;9.150;2023-04-01T15:18:41;13.40;1.00
774;DHT22;370;48.810;9.150;2023-04-01T15:21:21;13.50;1.00
774;DHT22;370;48.810;9.150;2023-04-01T15:23:59;13.50;1.00
774;DHT22;370;48.810;9.150;2023-04-01T15:27:01;13.50;1.00
774;DHT22;370;48.810;9.150;2023-04-01T15:30:12;13.40;1.00
774;DHT22;370;48.810;9.150;2023-04-01T15:32:50;13.30;1.00
774;DHT22;370;48.810;9.150;2023-04-01T15:35:25;13.40;1.00
774;DHT22;370;48.810;9.150;2023-04-01T15:37:55;13.30;1.00
774;DHT22;370;48.810;9.150;2023-04-01T15:40:27;13.30;1.00
774;DHT22;370;48.810;9.150;2023-04-01T15:43:10;13.30;1.00
774;DHT22;370;48.810;9.150;2023-04-01T15:45:47;13.10;1.00
774;DHT22;370;48.810;9.150;2023-04-01T15:48:26;13.00;1.00
774;DHT22;370;48.810;9.150;2023-04-01T15:51:07;13.00;1.00
774;DHT22;370;48.810;9.150;2023-04-01T15:53:56;13.00;1.00
774;DHT22;370;48.810;9.150;2023-04-01T15:56:40;13.00;1.00
774;DHT22;370;48.810;9.150;2023-04-01T15:59:18;12.90;1.00
774;DHT22;370;48.810;9.150;2023-04-01T16:01:53;12.80;1.00
774;DHT22;370;48.810;9.150;2023-04-01T16:04:45;12.70;1.00
774;DHT22;370;48.810;9.150;2023-04-01T16:07:26;12.70;1.00
774;DHT22;370;48.810;9.150;2023-04-01T16:10:03;12.60;1.00
774;DHT22;370;48.810;9.150;2023-04-01T16:12:44;12.50;1.00
774;DHT22;370;48.810;9.150;2023-04-01T16:15:21;12.50;1.00
774;DHT22;370;48.810;9.150;2023-04-01T16:18:23;12.50;1.00
774;DHT22;370;48.810;9.150;2023-04-01T16:20:56;12.30;1.00
774;DHT22;370;48.810;9.150;2023-04-01T16:23:28;12.30;1.00
774;DHT22;370;48.810;9.150;2023-04-01T16:26:05;12.20;1.00
774;DHT22;370;48.810;9.150;2023-04-01T16:28:38;12.10;1.00
774;DHT22;370;48.810;9.150;2023-04-01T16:31:10;12.00;1.00
774;DHT22;370;48.810;9.150;2023-04-01T16:33:45;12.10;1.00
774;DHT22;370;48.810;9.150;2023-04-01T16:36:22;12.00;1.00
774;DHT22;370;48.810;9.150;2023-04-01T16:39:06;11.90;1.00
774;DHT22;370;48.810;9.150;2023-04-01T16:41:38;11.90;1.00
774;DHT22;370;48.810;9.150;2023-04-01T16:44:19;11.80;1.00
774;DHT22;370;48.810;9.150;2023-04-01T16:46:50;11.80;1.00
774;DHT22;370;48.810;9.150;2023-04-01T16:49:33;11.80;1.00
774;DHT22;370;48.810;9.150;2023-04-01T16:52:14;11.80;1.00
774;DHT22;370;48.810;9.150;2023-04-01T16:54:47;12.00;1.00
774;DHT22;370;48.810;9.150;2023-04-01T16:57:20;11.90;1.00
774;DHT22;370;48.810;9.150;2023-04-01T16:59:55;11.90;1.00
774;DHT22;370;48.810;9.150;2023-04-01T17:02:28;11.90;1.00
774;DHT22;370;48.810;9.150;2023-04-01T17:05:00;12.00;1.00
774;DHT22;370;48.810;9.150;2023-04-01T17:07:45;11.90;1.00
774;DHT22;370;48.810;9.150;2023-04-01T17:10:37;12.00;1.00
774;DHT22;370;48.810;9.150;2023-04-01T17:13:19;12.00;1.00
774;DHT22;370;48.810;9.150;2023-04-01T17:15:58;11.80;1.00
774;DHT22;370;48.810;9.150;2023-04-01T17:18:37;11.90;1.00
774;DHT22;370;48.810;9.150;2023-04-01T17:21:09;11.80;1.00
774;DHT22;370;48.810;9.150;2023-04-01T17:23:42;11.70;1.00
774;DHT22;370;48.810;9.150;2023-04-01T17:26:24;11.80;1.00
774;DHT22;370;48.810;9.150;2023-04-01T17:28:58;11.70;1.00
774;DHT22;370;48.810;9.150;2023-04-01T17:31:40;11.70;1.00
774;DHT22;370;48.810;9.150;2023-04-01T17:34:32;11.70;1.00
774;DHT22;370;48.810;9.150;2023-04-01T17:37:28;11.70;1.00
774;DHT22;370;48.810;9.150;2023-04-01T17:40:06;11.70;1.00
774;DHT22;370;48.810;9.150;2023-04-01T17:42:40;11.80;1.00
774;DHT22;370;48.810;9.150;2023-04-01T17:45:11;11.80;1.00
774;DHT22;370;48.810;9.150;2023-04-01T17:47:52;11.70;1.00
774;DHT22;370;48.810;9.150;2023-04-01T17:50:28;11.70;1.00
774;DHT22;370;48.810;9.150;2023-04-01T17:53:11;11.70;1.00
774;DHT22;370;48.810;9.150;2023-04-01T17:55:50;11.60;1.00
774;DHT22;370;48.810;9.150;2023-04-01T17:58:20;11.50;2.60
774;DHT22;370;48.810;9.150;2023-04-01T18:01:07;11.30;4.90
774;DHT22;370;48.810;9.150;2023-04-01T18:06:51;10.90;10.00
774;DHT22;370;48.810;9.150;2023-04-01T18:09:28;10.80;14.30
774;DHT22;370;48.810;9.150;2023-04-01T18:12:04;10.60;14.20
774;DHT22;370;48.810;9.150;2023-04-01T18:14:48;10.40;17.20
774;DHT22;370;48.810;9.150;2023-04-01T18:17:27;10.30;22.40
774;DHT22;370;48.810;9.150;2023-04-01T18:20:18;10.20;24.30
774;DHT22;370;48.810;9.150;2023-04-01T18:22:54;10.10;24.40
774;DHT22;370;48.810;9.150;2023-04-01T18:25:28;10.00;25.50
774;DHT22;370;48.810;9.150;2023-04-01T18:28:15;9.90;26.90
774;DHT22;370;48.810;9.150;2023-04-01T18:30:50;9.90;26.50
774;DHT22;370;48.810;9.150;2023-04-01T18:33:21;9.90;27.10
774;DHT22;370;48.810;9.150;2023-04-01T18:35:53;9.80;27.90
774;DHT22;370;48.810;9.150;2023-04-01T18:38:29;9.80;27.90
774;DHT22;370;48.810;9.150;2023-04-01T18:41:10;9.70;28.70
774;DHT22;370;48.810;9.150;2023-04-01T18:43:44;9.70;27.70
774;DHT22;370;48.810;9.150;2023-04-01T18:46:26;9.60;27.20
774;DHT22;370;48.810;9.150;2023-04-01T18:49:05;9.50;22.70
774;DHT22;370;48.810;9.150;2023-04-01T18:51:39;9.40;22.60
774;DHT22;370;48.810;9.150;2023-04-01T18:54:12;9.30;19.70
774;DHT22;370;48.810;9.150;2023-04-01T18:56:42;9.20;20.30
774;DHT22;370;48.810;9.150;2023-04-01T18:59:14;9.10;20.90
774;DHT22;370;48.810;9.150;2023-04-01T19:01:50;9.00;22.30
774;DHT22;370;48.810;9.150;2023-04-01T19:04:24;9.00;21.70
774;DHT22;370;48.810;9.150;2023-04-01T19:06:56;8.80;21.00
774;DHT22;370;48.810;9.150;2023-04-01T19:09:26;8.80;20.50
774;DHT22;370;48.810;9.150;2023-04-01T19:14:59;8.70;21.30
774;DHT22;370;48.810;9.150;2023-04-01T19:17:40;8.60;20.20
774;DHT22;370;48.810;9.150;2023-04-01T19:20:16;8.60;20.50
774;DHT22;370;48.810;9.150;2023-04-01T19:22:57;8.60;20.80
774;DHT22;370;48.810;9.150;2023-04-01T19:25:32;8.60;20.30
774;DHT22;370;48.810;9.150;2023-04-01T19:28:13;8.50;20.30
774;DHT22;370;48.810;9.150;2023-04-01T19:30:48;8.60;19.90
774;DHT22;370;48.810;9.150;2023-04-01T19:33:26;8.60;20.50
774;DHT22;370;48.810;9.150;2023-04-01T19:36:00;8.60;20.40
774;DHT22;370;48.810;9.150;2023-04-01T19:38:32;8.70;20.20